• Join FlightAware (Why Join?)
  • Login
  • US Flag 
11:14PM EDT


 

Airport Tracker/Info


-or-


 

Live Flight TrackerFlight Track Log ✈ DAL1098 ✈ 06-Nov-2013 ✈ KOMA - KATL

Flight Track Log - Related Links

Times and Time Zones

All times are in EST time to prevent confusion due to time zone crossing. See the DAL1098 flight status page for this flight to view local times or setup timezone preferences in your user account.

Time Position Orientation Groundspeed Altitude Reporting Facility
EST Latitude Longitude Course Direction KTS MPH feet Rate Location/Type
07:12PM 41.3131 -95.9119 360° North 126 145 2,000  Level Minneapolis Center
07:13PM 41.3361 -95.9119 360° North 167 192 2,800 1,260 Climbing Minneapolis Center
07:13PM 41.3444 -95.9028 40° Northeast 179 206 3,000 3,480 Climbing Minneapolis Center
07:14PM 41.3778 -95.8178 62° Northeast 263 303 7,400 3,660 Climbing Minneapolis Center
07:15PM 41.3433 -95.7164 114° Southeast 287 330 10,600 2,460 Climbing Minneapolis Center
07:16PM 41.2997 -95.5931 115° Southeast 334 384 12,600 2,280 Climbing Minneapolis Center
07:17PM 41.2500 -95.4564 116° Southeast 395 455 15,400 2,700 Climbing Minneapolis Center
07:18PM 41.1886 -95.3183 121° Southeast 424 488 18,200 2,640 Climbing Minneapolis Center
07:19PM 41.1250 -95.1783 121° Southeast 436 502 20,900 2,400 Climbing Minneapolis Center
07:20PM 41.0603 -95.0331 121° Southeast 450 518 23,200 2,280 Climbing Minneapolis Center
07:21PM 40.9797 -94.8547 121° Southeast 464 534 25,700 2,160 Climbing Minneapolis Center
07:22PM 40.9111 -94.7036 121° Southeast 474 545 27,700 1,740 Climbing Minneapolis Center
07:23PM 40.8386 -94.5483 122° Southeast 484 557 29,400 1,560 Climbing Minneapolis Center
07:24PM 40.7667 -94.3958 122° Southeast 489 563 31,000 1,500 Climbing Minneapolis Center
07:25PM 40.6961 -94.2458 122° Southeast 489 563 32,500 1,080 Climbing Minneapolis Center
07:26PM 40.6286 -94.0950 120° Southeast 486 559 33,300 900 Climbing Minneapolis Center
07:27PM 40.5442 -93.9125 121° Southeast 488 562 34,400 1,320 Climbing Minneapolis Center
07:28PM 40.4753 -93.7606 121° Southeast 488 562 36,100 1,020 Climbing Minneapolis Center
07:29PM 40.4086 -93.6142 121° Southeast 479 551 36,600 480 Climbing Minneapolis Center
07:30PM 40.3522 -93.4958 122° Southeast 477 549 37,000 180 Climbing Kansas City Center
07:31PM 40.2833 -93.3469 121° Southeast 479 551 37,000  Level Kansas City Center
07:32PM 40.2133 -93.1997 122° Southeast 481 554 37,000  Level Kansas City Center
07:33PM 40.1319 -93.0297 122° Southeast 479 551 37,000  Level Kansas City Center
07:34PM 40.0636 -92.8833 121° Southeast 472 543 37,000  Level Kansas City Center
07:35PM 39.9956 -92.7403 122° Southeast 471 542 37,000  Level Kansas City Center
07:36PM 39.9283 -92.5989 122° Southeast 469 540 37,000  Level Kansas City Center
07:37PM 39.8600 -92.4597 123° Southeast 465 535 37,000  Level Kansas City Center
07:38PM 39.7900 -92.3200 123° Southeast 466 536 37,000  Level Kansas City Center
07:39PM 39.7067 -92.1514 123° Southeast 466 536 37,000  Level Kansas City Center
07:40PM 39.6361 -92.0103 123° Southeast 468 539 37,000  Level Kansas City Center
07:41PM 39.5650 -91.8714 124° Southeast 467 537 37,000  Level Kansas City Center
07:42PM 39.4956 -91.7314 123° Southeast 466 536 37,000  Level Kansas City Center
07:44PM 39.4122 -91.5672 123° Southeast 468 539 37,000  Level Kansas City Center
07:45PM 39.3406 -91.4211 122° Southeast 477 549 37,000  Level Kansas City Center
07:46PM 39.2669 -91.2739 123° Southeast 485 558 37,000  Level Kansas City Center
07:47PM 39.1936 -91.1292 123° Southeast 484 557 37,000  Level Kansas City Center
07:48PM 39.1194 -90.9828 123° Southeast 485 558 37,000  Level Kansas City Center
07:49PM 39.0456 -90.8367 123° Southeast 488 562 37,000  Level Kansas City Center
07:50PM 38.9556 -90.6611 123° Southeast 490 564 37,000  Level Kansas City Center
07:51PM 38.8847 -90.5228 123° Southeast 488 562 37,000  Level Kansas City Center
07:52PM 38.8011 -90.3925 129° Southeast 473 544 37,000  Level Kansas City Center
07:53PM 38.7131 -90.2692 132° Southeast 471 542 37,000  Level Kansas City Center
07:54PM 38.6200 -90.1269 130° Southeast 469 540 37,000  Level Kansas City Center
07:55PM 38.5331 -90.0028 132° Southeast 469 540 37,000  Level Kansas City Center
07:56PM 38.4478 -89.8794 131° Southeast 466 536 37,000  Level Kansas City Center
07:57PM 38.3619 -89.7542 131° Southeast 468 539 37,000  Level Kansas City Center
07:58PM 38.2747 -89.6283 131° Southeast 473 544 37,000  Level Kansas City Center
07:59PM 38.1878 -89.5031 131° Southeast 473 544 37,000  Level Kansas City Center
08:00PM 38.0836 -89.3542 132° Southeast 472 543 37,000  Level Kansas City Center
08:01PM 37.9903 -89.2206 132° Southeast 471 542 37,000  Level Kansas City Center
08:02PM 37.9047 -89.0956 131° Southeast 470 541 37,000  Level Kansas City Center
08:03PM 37.8231 -88.9817 132° Southeast 472 543 37,000  Level Kansas City Center
08:04PM 37.7292 -88.8456 131° Southeast 469 540 37,000  Level Kansas City Center
08:05PM 37.6375 -88.7203 133° Southeast 465 535 37,000  Level Kansas City Center
08:06PM 37.5547 -88.6042 132° Southeast 469 540 37,000  Level Memphis Center
08:07PM 37.4697 -88.4808 131° Southeast 469 540 37,000  Level Memphis Center
08:08PM 37.3803 -88.3575 132° Southeast 469 540 37,000  Level Memphis Center
08:09PM 37.2931 -88.2400 133° Southeast 463 533 37,000  Level Memphis Center
08:10PM 37.2075 -88.1197 132° Southeast 463 533 37,000  Level Memphis Center
08:11PM 37.1283 -88.0103 132° Southeast 463 533 37,000  Level Memphis Center
08:12PM 37.0322 -87.8806 133° Southeast 463 533 37,000  Level Memphis Center
08:13PM 36.9444 -87.7639 133° Southeast 463 533 37,000  Level Memphis Center
08:14PM 36.8564 -87.6447 133° Southeast 463 533 37,000  Level Memphis Center
08:15PM 36.7703 -87.5286 133° Southeast 463 533 37,000  Level Memphis Center
08:16PM 36.6842 -87.4125 133° Southeast 463 533 37,000  Level Memphis Center
08:17PM 36.5961 -87.2942 133° Southeast 463 533 37,000 -480 Level Memphis Center
08:18PM 36.5117 -87.1761 132° Southeast 463 533 36,100 -1,020 Descending Memphis Center
08:19PM 36.4231 -87.0583 133° Southeast 463 533 35,000 -600 Descending Memphis Center
08:20PM 36.3281 -86.9361 134° Southeast 474 545 35,000 -60 Level Memphis Center
08:21PM 36.2544 -86.8389 133° Southeast 480 552 34,900 -600 Descending Memphis Center
08:22PM 36.1506 -86.6994 133° Southeast 480 552 33,800 -960 Descending Memphis Center
08:23PM 36.0497 -86.6036 142° Southeast 460 529 33,000 -420 Descending Memphis Center
08:24PM 35.9428 -86.5214 148° Southeast 453 521 33,000  Level Memphis Center
08:26PM 35.7814 -86.3911 147° Southeast 447 514 33,000  Level Atlanta Center
08:27PM 35.6767 -86.3064 147° Southeast 452 520 33,000  Level Atlanta Center
08:28PM 35.5697 -86.2217 147° Southeast 452 520 33,000  Level Atlanta Center
08:29PM 35.4728 -86.1478 148° Southeast 452 520 33,000  Level Atlanta Center
08:30PM 35.3533 -86.0506 146° Southeast 458 527 33,000  Level Atlanta Center
08:31PM 35.2464 -85.9614 146° Southeast 458 527 33,000  Level Atlanta Center
08:32PM 35.1536 -85.8856 146° Southeast 457 526 33,000 -600 Level Atlanta Center
08:33PM 35.0506 -85.7994 146° Southeast 452 520 31,900 -1,320 Descending Atlanta Center
08:34PM 34.9475 -85.7136 146° Southeast 452 520 30,400 -1,200 Descending Atlanta Center
08:35PM 34.8400 -85.6306 148° Southeast 458 527 29,600 -960 Descending Atlanta Center
08:36PM 34.7325 -85.5400 145° Southeast 463 533 28,500 -2,400 Descending Atlanta Center
08:37PM 34.6272 -85.4550 146° Southeast 463 533 24,900 -3,300 Descending Atlanta Center
08:38PM 34.5239 -85.3725 147° Southeast 463 533 22,000 -2,760 Descending Atlanta Center
08:39PM 34.4244 -85.2903 146° Southeast 452 520 19,400 -2,880 Descending Atlanta Center
08:40PM 34.3208 -85.2083 147° Southeast 418 481 16,300 -3,000 Descending Atlanta Center
08:41PM 34.2319 -85.1342 145° Southeast 405 466 13,400 -1,680 Descending Atlanta Center
08:42PM 34.1447 -85.0653 147° Southeast 386 444 13,000 -300 Descending Atlanta Center
08:43PM 34.0703 -84.9992 144° Southeast 350 403 12,800 -900 Descending Atlanta Center
08:44PM 34.0122 -84.9258 134° Southeast 311 358 11,200 -1,740 Descending Atlanta Center
08:45PM 33.9544 -84.8528 134° Southeast 299 344 9,400 -1,140 Descending Atlanta Center
08:46PM 33.8939 -84.8272 161° South 291 335 9,000 -780 Descending Atlanta Center
08:47PM 33.8272 -84.8239 178° South 244 281 7,900 -1,020 Descending Atlanta Center
08:48PM 33.7625 -84.8208 178° South 236 272 7,000 -1,200 Descending Atlanta Center
08:49PM 33.7019 -84.8178 178° South 231 266 5,500 -1,020 Descending Atlanta Center
08:50PM 33.6647 -84.7628 129° Southeast 204 235 5,000 -600 Descending Atlanta Center
08:51PM 33.6500 -84.6667 100° East 191 220 4,100 -600 Descending Atlanta TRACON
08:52PM 33.6500 -84.6000 90° East 191 220 3,600 -720 Descending Atlanta TRACON
08:53PM 33.6500 -84.5500 90° East 180 207 2,800 -900 Descending Atlanta TRACON
08:54PM 33.6500 -84.5000 90° East 137 158 2,000 -780 Descending Atlanta TRACON
08:55PM 33.6500 -84.4500 90° East 132 152 1,300 -720 Descending Atlanta TRACON